createdAt,value
2023-04-26T00:00:13.557Z,2.40
2023-04-26T00:03:01.956Z,2.10
2023-04-26T00:05:31.475Z,2.20
2023-04-26T00:08:00.548Z,2.20
2023-04-26T00:10:28.828Z,1.80
2023-04-26T00:12:57.010Z,2.20
2023-04-26T00:15:25.828Z,2.00
2023-04-26T00:17:54.544Z,2.00
2023-04-26T00:20:22.989Z,1.90
2023-04-26T00:22:51.172Z,2.40
2023-04-26T00:25:19.955Z,2.30
2023-04-26T00:27:48.296Z,2.20
2023-04-26T00:30:16.851Z,2.30
2023-04-26T00:32:45.293Z,2.10
2023-04-26T00:35:15.838Z,2.40
2023-04-26T00:37:45.242Z,2.10
2023-04-26T00:40:14.216Z,2.50
2023-04-26T00:42:42.928Z,2.50
2023-04-26T00:45:11.277Z,2.40
2023-04-26T00:47:39.798Z,2.30
2023-04-26T00:50:08.704Z,2.10
2023-04-26T00:52:38.602Z,2.30
2023-04-26T00:55:08.560Z,3.50
2023-04-26T00:57:37.583Z,2.10
2023-04-26T01:00:06.854Z,2.40
2023-04-26T01:02:35.397Z,2.70
2023-04-26T01:05:05.447Z,2.60
2023-04-26T01:07:34.112Z,2.40
2023-04-26T01:10:06.381Z,2.60
2023-04-26T01:12:35.284Z,2.70
2023-04-26T01:15:06.017Z,3.10
2023-04-26T01:17:34.432Z,2.80
2023-04-26T01:20:03.335Z,3.60
2023-04-26T01:22:35.643Z,2.80
2023-04-26T01:25:05.831Z,2.90
2023-04-26T01:27:34.388Z,2.50
2023-04-26T01:30:03.747Z,2.80
2023-04-26T01:32:32.362Z,2.30
2023-04-26T01:35:01.936Z,2.50
2023-04-26T01:37:30.547Z,2.80
2023-04-26T01:40:02.278Z,3.00
2023-04-26T01:42:30.458Z,3.00
2023-04-26T01:45:01.772Z,3.10
2023-04-26T01:47:49.920Z,2.80
2023-04-26T01:50:18.276Z,2.90
2023-04-26T01:52:47.753Z,3.00
2023-04-26T01:55:16.024Z,3.40
2023-04-26T01:57:44.295Z,3.00
2023-04-26T02:00:13.339Z,3.20
2023-04-26T02:02:41.516Z,3.20
2023-04-26T02:05:12.410Z,3.30
2023-04-26T02:07:40.737Z,3.00
2023-04-26T02:10:10.007Z,3.50
2023-04-26T02:12:38.387Z,2.90
2023-04-26T02:15:08.605Z,3.10
2023-04-26T02:17:37.992Z,3.20
2023-04-26T02:20:09.629Z,3.20
2023-04-26T02:22:38.452Z,3.40
2023-04-26T02:25:08.522Z,3.50
2023-04-26T02:27:36.800Z,3.40
2023-04-26T02:30:05.619Z,3.00
2023-04-26T02:32:33.905Z,3.30
2023-04-26T02:35:02.454Z,3.30
2023-04-26T02:37:30.691Z,3.60
2023-04-26T02:39:59.103Z,3.50
2023-04-26T02:42:27.413Z,3.50
2023-04-26T02:44:55.657Z,3.20
2023-04-26T02:47:24.466Z,3.90
2023-04-26T02:49:52.795Z,3.70
2023-04-26T02:52:21.327Z,3.50
2023-04-26T02:54:49.518Z,4.20
2023-04-26T02:57:20.424Z,3.60
2023-04-26T02:59:49.321Z,5.00
2023-04-26T03:02:17.610Z,4.60
2023-04-26T03:04:47.464Z,4.90
2023-04-26T03:07:16.134Z,4.90
2023-04-26T03:09:44.339Z,3.90
2023-04-26T03:12:12.610Z,6.00
2023-04-26T03:14:40.892Z,4.70
2023-04-26T03:17:09.154Z,4.30
2023-04-26T03:19:37.508Z,5.60
2023-04-26T03:22:06.110Z,4.30
2023-04-26T03:24:34.494Z,4.30
2023-04-26T03:27:02.818Z,5.20
2023-04-26T03:29:33.934Z,4.40
2023-04-26T03:32:02.242Z,4.30
2023-04-26T03:34:30.562Z,4.70
2023-04-26T03:36:59.034Z,4.40
2023-04-26T03:39:27.374Z,4.50
2023-04-26T03:41:55.754Z,4.10
2023-04-26T03:44:24.298Z,4.40
2023-04-26T03:46:52.529Z,4.60
2023-04-26T03:49:21.337Z,4.20
2023-04-26T03:51:49.521Z,4.40
2023-04-26T03:54:17.917Z,6.40
2023-04-26T03:56:46.109Z,4.60
2023-04-26T03:59:14.959Z,4.90
2023-04-26T04:01:44.165Z,5.90
2023-04-26T04:04:12.735Z,4.60
2023-04-26T04:06:42.235Z,5.20
2023-04-26T04:09:10.424Z,4.70
2023-04-26T04:11:38.685Z,4.40
2023-04-26T04:14:07.695Z,4.40
2023-04-26T04:16:36.145Z,7.00
2023-04-26T04:19:05.789Z,4.40
2023-04-26T04:21:34.327Z,5.20
2023-04-26T04:24:02.999Z,5.10
2023-04-26T04:26:31.279Z,5.50
2023-04-26T04:29:09.033Z,7.30
2023-04-26T04:31:40.344Z,6.40
2023-04-26T04:34:12.153Z,6.40
2023-04-26T04:36:43.650Z,5.10
2023-04-26T04:39:16.455Z,5.40
2023-04-26T04:41:49.194Z,4.80
2023-04-26T04:44:19.301Z,4.40
2023-04-26T04:46:48.419Z,4.10
2023-04-26T04:49:16.662Z,4.20
2023-04-26T04:51:45.202Z,4.60
2023-04-26T04:54:16.005Z,3.90
2023-04-26T04:56:48.162Z,4.00
2023-04-26T04:59:17.438Z,4.30
2023-04-26T05:01:46.426Z,4.10
2023-04-26T05:04:16.851Z,4.40
2023-04-26T05:06:45.867Z,3.90
2023-04-26T05:09:14.297Z,4.50
2023-04-26T05:11:44.346Z,4.40
2023-04-26T05:14:13.650Z,5.90
2023-04-26T05:16:41.994Z,4.20
2023-04-26T05:19:10.723Z,4.20
2023-04-26T05:21:39.097Z,4.50
2023-04-26T05:24:07.960Z,4.40
2023-04-26T05:26:38.522Z,4.20
2023-04-26T05:29:30.259Z,4.60
2023-04-26T05:32:09.188Z,5.40
2023-04-26T05:35:13.145Z,4.70
2023-04-26T05:37:42.087Z,3.60
2023-04-26T05:40:15.430Z,4.10
2023-04-26T05:42:43.874Z,4.10
2023-04-26T05:45:12.591Z,3.90
2023-04-26T05:47:41.449Z,4.80
2023-04-26T05:50:11.202Z,5.10
2023-04-26T05:52:40.506Z,4.00
2023-04-26T05:55:09.973Z,5.40
2023-04-26T05:57:38.892Z,5.70
2023-04-26T06:00:12.560Z,4.40
2023-04-26T06:02:44.509Z,5.20
2023-04-26T06:05:16.198Z,4.90
2023-04-26T06:07:46.665Z,5.90
2023-04-26T06:10:15.107Z,5.20
2023-04-26T06:12:43.452Z,5.00
2023-04-26T06:15:12.856Z,4.60
2023-04-26T06:17:42.254Z,5.10
2023-04-26T06:20:11.110Z,4.70
2023-04-26T06:22:39.492Z,4.40
2023-04-26T06:25:10.215Z,6.80
2023-04-26T06:27:41.843Z,4.60
2023-04-26T06:30:11.204Z,5.30
2023-04-26T06:32:42.537Z,8.10
2023-04-26T06:35:11.114Z,5.10
2023-04-26T06:37:39.917Z,4.80
2023-04-26T06:40:09.739Z,5.20
2023-04-26T06:42:38.805Z,5.20
2023-04-26T06:45:19.107Z,4.70
2023-04-26T06:47:47.724Z,5.70
2023-04-26T06:50:16.190Z,4.60
2023-04-26T06:52:44.950Z,4.00
2023-04-26T06:55:13.418Z,3.60
2023-04-26T06:57:41.675Z,4.40
2023-04-26T07:00:10.869Z,4.60
2023-04-26T07:02:39.264Z,4.00
2023-04-26T07:05:08.175Z,5.10
2023-04-26T07:07:36.699Z,4.30
2023-04-26T07:10:05.321Z,3.90
2023-04-26T07:12:34.235Z,4.10
2023-04-26T07:15:04.875Z,3.40
2023-04-26T07:17:33.380Z,5.20
2023-04-26T07:20:01.983Z,4.00
2023-04-26T07:22:30.288Z,3.00
2023-04-26T07:24:58.598Z,3.40
2023-04-26T07:27:27.039Z,4.20
2023-04-26T07:29:56.355Z,3.50
2023-04-26T07:32:24.721Z,4.50
2023-04-26T07:34:54.244Z,3.70
2023-04-26T07:37:22.454Z,4.40
2023-04-26T07:39:50.665Z,3.50
2023-04-26T07:42:18.872Z,3.00
2023-04-26T07:44:49.237Z,3.00
2023-04-26T07:47:17.526Z,2.60
2023-04-26T07:49:47.654Z,4.40
2023-04-26T07:52:16.201Z,2.70
2023-04-26T07:54:46.962Z,2.70
2023-04-26T07:57:15.287Z,3.00
2023-04-26T07:59:48.136Z,2.50
2023-04-26T08:02:17.236Z,3.00
2023-04-26T08:04:52.664Z,2.60
2023-04-26T08:07:22.812Z,2.70
2023-04-26T08:09:51.179Z,4.00
2023-04-26T08:12:19.799Z,3.20
2023-04-26T08:14:48.061Z,3.20
2023-04-26T08:17:16.368Z,3.20
2023-04-26T08:19:44.735Z,3.30
2023-04-26T08:22:13.022Z,3.30
2023-04-26T08:24:41.284Z,3.00
2023-04-26T08:27:09.570Z,3.30
2023-04-26T08:29:37.853Z,7.20
2023-04-26T08:32:06.204Z,3.50
2023-04-26T08:34:35.138Z,3.90
2023-04-26T08:37:03.355Z,3.40
2023-04-26T08:39:31.798Z,3.30
2023-04-26T08:42:08.519Z,3.60
2023-04-26T08:44:37.386Z,3.00
2023-04-26T08:47:29.568Z,5.90
2023-04-26T08:50:04.919Z,3.60
2023-04-26T08:52:33.294Z,3.00
2023-04-26T08:55:05.564Z,3.40
2023-04-26T08:57:34.417Z,4.00
2023-04-26T09:00:06.808Z,3.20
2023-04-26T09:02:35.894Z,5.20
2023-04-26T09:05:05.125Z,3.40
2023-04-26T09:07:47.264Z,2.50
2023-04-26T09:10:22.617Z,3.30
2023-04-26T09:12:55.287Z,2.80
2023-04-26T09:15:25.041Z,3.60
2023-04-26T09:17:53.884Z,3.60
2023-04-26T09:20:27.930Z,2.80
2023-04-26T09:23:07.652Z,3.00
2023-04-26T09:25:38.187Z,2.60
2023-04-26T09:28:21.416Z,2.60
2023-04-26T09:30:49.896Z,3.00
2023-04-26T09:33:19.703Z,3.00
2023-04-26T09:35:48.049Z,2.80
2023-04-26T09:38:18.226Z,2.50
2023-04-26T09:40:50.928Z,2.90
2023-04-26T09:43:21.857Z,2.10
2023-04-26T09:45:53.536Z,2.60
2023-04-26T09:48:24.022Z,2.60
2023-04-26T09:50:57.824Z,2.90
2023-04-26T09:53:27.869Z,3.30
2023-04-26T09:55:57.640Z,2.30
2023-04-26T09:58:26.107Z,3.10
2023-04-26T10:00:55.573Z,3.10
2023-04-26T10:03:24.597Z,2.50
2023-04-26T10:05:54.066Z,2.30
2023-04-26T10:08:22.447Z,2.60
2023-04-26T10:10:51.594Z,2.90
2023-04-26T10:13:19.859Z,3.20
2023-04-26T10:15:50.921Z,4.80
2023-04-26T10:18:19.164Z,5.80
2023-04-26T10:20:53.227Z,5.30
2023-04-26T10:23:25.903Z,4.40
2023-04-26T10:25:56.189Z,5.30
2023-04-26T10:28:52.320Z,4.70
2023-04-26T10:31:22.989Z,4.60
2023-04-26T10:34:21.264Z,5.10
2023-04-26T10:37:16.262Z,5.40
2023-04-26T10:39:46.694Z,6.00
2023-04-26T10:42:24.492Z,5.50
2023-04-26T10:44:54.736Z,5.40
2023-04-26T10:47:34.707Z,5.40
2023-04-26T10:50:10.073Z,5.40
2023-04-26T10:53:04.150Z,4.50
2023-04-26T10:55:40.481Z,4.90
2023-04-26T10:58:30.115Z,3.90
2023-04-26T11:01:21.400Z,5.00
2023-04-26T11:03:57.060Z,3.70
2023-04-26T11:06:27.137Z,3.40
2023-04-26T11:08:55.676Z,3.70
2023-04-26T11:11:27.406Z,3.40
2023-04-26T11:13:56.544Z,4.80
2023-04-26T11:16:30.796Z,4.10
2023-04-26T11:18:59.540Z,3.70
2023-04-26T11:21:28.981Z,4.50
2023-04-26T11:23:57.247Z,5.30
2023-04-26T11:26:33.286Z,4.00
2023-04-26T11:29:01.514Z,4.60
2023-04-26T11:31:31.109Z,4.80
2023-04-26T11:34:05.759Z,4.60
2023-04-26T11:36:39.113Z,3.90
2023-04-26T11:39:07.472Z,4.50
2023-04-26T11:41:35.764Z,4.50
2023-04-26T11:44:07.212Z,4.60
2023-04-26T11:46:35.775Z,5.90
2023-04-26T11:49:08.349Z,5.80
2023-04-26T11:51:37.228Z,7.30
2023-04-26T11:54:05.459Z,7.80
2023-04-26T11:56:33.808Z,5.80
2023-04-26T11:59:02.068Z,4.80
2023-04-26T12:01:30.947Z,7.70
2023-04-26T12:04:00.427Z,4.30
2023-04-26T12:06:42.854Z,6.00
2023-04-26T12:09:14.222Z,4.30
2023-04-26T12:11:49.338Z,5.20
2023-04-26T12:14:17.680Z,6.40
2023-04-26T12:16:47.102Z,5.50
2023-04-26T12:19:17.355Z,7.60
2023-04-26T12:21:47.172Z,5.90
2023-04-26T12:24:26.012Z,5.40
2023-04-26T12:26:54.294Z,4.30
2023-04-26T12:29:22.578Z,5.20
2023-04-26T12:31:51.119Z,4.90
2023-04-26T12:34:19.846Z,4.30
2023-04-26T12:36:48.170Z,4.60
2023-04-26T12:39:16.993Z,6.10
2023-04-26T12:41:49.511Z,6.40
2023-04-26T12:44:19.654Z,9.30
2023-04-26T12:46:50.131Z,8.40
2023-04-26T12:49:18.782Z,9.00
2023-04-26T12:51:47.772Z,9.70
2023-04-26T12:54:16.390Z,11.00
2023-04-26T12:56:45.577Z,8.60
2023-04-26T12:59:13.826Z,7.20
2023-04-26T13:01:42.241Z,7.70
2023-04-26T13:04:11.229Z,8.70
2023-04-26T13:06:40.047Z,6.40
2023-04-26T13:09:08.613Z,7.90
2023-04-26T13:11:37.033Z,7.80
2023-04-26T13:14:07.266Z,8.50
2023-04-26T13:16:35.912Z,8.20
2023-04-26T13:19:06.764Z,7.50
2023-04-26T13:21:38.179Z,6.60
2023-04-26T13:24:07.770Z,6.90
2023-04-26T13:26:36.152Z,6.60
2023-04-26T13:29:05.214Z,6.20
2023-04-26T13:31:33.619Z,6.30
2023-04-26T13:34:03.995Z,6.10
2023-04-26T13:36:32.979Z,6.80
2023-04-26T13:39:01.201Z,5.80
2023-04-26T13:41:33.537Z,6.70
2023-04-26T13:44:04.543Z,5.70
2023-04-26T13:46:38.527Z,5.70
2023-04-26T13:49:07.385Z,5.30
2023-04-26T13:51:36.806Z,4.40
2023-04-26T13:54:06.185Z,5.30
2023-04-26T13:56:34.766Z,5.40
2023-04-26T13:59:05.449Z,4.00
2023-04-26T14:01:35.045Z,3.90
2023-04-26T14:04:04.747Z,4.50
2023-04-26T14:06:34.450Z,4.20
2023-04-26T14:09:05.165Z,3.80
2023-04-26T14:11:33.394Z,4.10
2023-04-26T14:14:01.813Z,3.70
2023-04-26T14:16:31.641Z,3.60
2023-04-26T14:19:02.512Z,4.20
2023-04-26T14:21:31.760Z,4.60
2023-04-26T14:24:02.462Z,4.60
2023-04-26T14:26:33.901Z,4.40
2023-04-26T14:29:02.425Z,5.30
2023-04-26T14:31:32.239Z,4.80
2023-04-26T14:34:00.632Z,5.90
2023-04-26T14:36:29.010Z,5.60
2023-04-26T14:38:57.506Z,5.20
2023-04-26T14:41:25.816Z,5.50
2023-04-26T14:43:54.702Z,5.30
2023-04-26T14:46:23.098Z,5.20
2023-04-26T14:48:51.359Z,5.00
2023-04-26T14:51:19.517Z,5.40
2023-04-26T14:53:47.767Z,5.50
2023-04-26T14:56:17.176Z,4.60
2023-04-26T14:58:45.713Z,5.70
2023-04-26T15:01:14.086Z,5.60
2023-04-26T15:03:42.499Z,4.20
2023-04-26T15:06:14.260Z,4.90
2023-04-26T15:08:42.477Z,4.40
2023-04-26T15:11:11.687Z,5.80
2023-04-26T15:13:40.249Z,7.20
2023-04-26T15:16:08.680Z,4.90
2023-04-26T15:18:37.551Z,5.20
2023-04-26T15:21:05.990Z,5.30
2023-04-26T15:23:35.609Z,5.20
2023-04-26T15:26:04.627Z,4.10
2023-04-26T15:28:33.182Z,4.90
2023-04-26T15:31:05.875Z,5.70
2023-04-26T15:33:37.437Z,6.80
2023-04-26T15:36:07.973Z,6.70
2023-04-26T15:38:38.363Z,5.60
2023-04-26T15:41:09.077Z,5.50
2023-04-26T15:43:37.250Z,6.60
2023-04-26T15:46:08.515Z,7.50
2023-04-26T15:48:37.417Z,5.10
2023-04-26T15:51:06.072Z,7.00
2023-04-26T15:53:34.699Z,5.20
2023-04-26T15:56:02.965Z,5.00
2023-04-26T15:58:33.926Z,5.50
2023-04-26T16:01:03.749Z,5.70
2023-04-26T16:03:32.224Z,5.80
2023-04-26T16:06:00.705Z,4.10
2023-04-26T16:08:40.038Z,5.20
2023-04-26T16:11:09.168Z,4.60
2023-04-26T16:13:39.681Z,4.30
2023-04-26T16:16:10.914Z,4.50
2023-04-26T16:18:40.584Z,4.80
2023-04-26T16:21:13.111Z,5.00
2023-04-26T16:23:45.602Z,4.90
2023-04-26T16:26:14.537Z,5.50
2023-04-26T16:28:45.278Z,5.70
2023-04-26T16:31:13.715Z,5.60
2023-04-26T16:33:42.254Z,5.20
2023-04-26T16:36:12.456Z,5.20
2023-04-26T16:38:41.022Z,5.30
2023-04-26T16:41:09.299Z,5.50
2023-04-26T16:43:37.495Z,6.80
2023-04-26T16:46:08.981Z,6.60
2023-04-26T16:48:38.820Z,5.50
2023-04-26T16:51:08.154Z,5.50
2023-04-26T16:53:40.052Z,6.30
2023-04-26T16:56:08.497Z,6.30
2023-04-26T16:58:37.218Z,6.90
2023-04-26T17:01:08.293Z,6.40
2023-04-26T17:03:37.037Z,5.30
2023-04-26T17:06:07.212Z,7.00
2023-04-26T17:08:35.530Z,6.10
2023-04-26T17:11:04.101Z,6.20
2023-04-26T17:13:33.552Z,5.50
2023-04-26T17:16:02.000Z,6.30
2023-04-26T17:18:30.245Z,5.10
2023-04-26T17:20:58.474Z,7.50
2023-04-26T17:23:26.692Z,5.80
2023-04-26T17:25:56.568Z,5.40
2023-04-26T17:28:24.790Z,6.10
2023-04-26T17:30:55.844Z,6.20
2023-04-26T17:33:25.228Z,5.60
2023-04-26T17:35:53.503Z,6.40
2023-04-26T17:38:21.978Z,5.60
2023-04-26T17:40:54.682Z,7.30
2023-04-26T17:43:23.072Z,5.00
2023-04-26T17:45:51.364Z,4.90
2023-04-26T17:48:19.708Z,5.30
2023-04-26T17:50:48.038Z,5.10
2023-04-26T17:53:16.355Z,5.10
2023-04-26T17:55:45.137Z,4.50
2023-04-26T17:58:13.722Z,4.70
2023-04-26T18:00:42.086Z,4.00
2023-04-26T18:03:14.531Z,3.60
2023-04-26T18:05:42.940Z,3.80
2023-04-26T18:08:11.470Z,3.40
2023-04-26T18:10:40.010Z,2.80
2023-04-26T18:13:08.242Z,2.80
2023-04-26T18:15:39.490Z,2.20
2023-04-26T18:18:08.274Z,2.80
2023-04-26T18:20:38.945Z,2.50
2023-04-26T18:23:07.222Z,2.70
2023-04-26T18:25:35.460Z,3.40
2023-04-26T18:28:05.911Z,2.80
2023-04-26T18:30:34.306Z,3.10
2023-04-26T18:33:02.665Z,3.30
2023-04-26T18:35:31.221Z,3.20
2023-04-26T18:38:01.638Z,3.10
2023-04-26T18:40:30.077Z,3.20
2023-04-26T18:42:59.090Z,2.80
2023-04-26T18:45:27.669Z,2.70
2023-04-26T18:47:56.462Z,2.70
2023-04-26T18:50:24.979Z,2.20
2023-04-26T18:52:54.091Z,1.90
2023-04-26T18:55:22.774Z,2.10
2023-04-26T18:57:51.677Z,2.20
2023-04-26T19:00:20.296Z,1.90
2023-04-26T19:02:48.732Z,2.20
2023-04-26T19:05:17.393Z,2.20
2023-04-26T19:07:46.185Z,2.40
2023-04-26T19:10:17.366Z,1.90
2023-04-26T19:12:46.078Z,2.30
2023-04-26T19:15:17.599Z,2.00
2023-04-26T19:17:46.677Z,1.70
2023-04-26T19:20:15.352Z,1.90
2023-04-26T19:22:51.413Z,2.00
2023-04-26T19:25:23.216Z,2.60
2023-04-26T19:27:52.545Z,1.60
2023-04-26T19:30:22.357Z,1.70
2023-04-26T19:32:53.298Z,1.60
2023-04-26T19:35:21.796Z,1.70
2023-04-26T19:37:49.984Z,1.40
2023-04-26T19:40:18.411Z,1.50
2023-04-26T19:42:46.708Z,1.50
2023-04-26T19:45:15.084Z,1.00
2023-04-26T19:47:43.848Z,1.90
2023-04-26T19:50:14.611Z,1.30
2023-04-26T19:52:42.866Z,1.30
2023-04-26T19:55:11.432Z,1.50
2023-04-26T19:57:39.955Z,1.50
2023-04-26T20:00:10.090Z,1.20
2023-04-26T20:02:38.531Z,1.20
2023-04-26T20:05:08.103Z,1.50
2023-04-26T20:07:37.195Z,1.40
2023-04-26T20:10:06.331Z,1.50
2023-04-26T20:12:35.441Z,1.40
2023-04-26T20:15:03.905Z,1.10
2023-04-26T20:17:32.345Z,1.20
2023-04-26T20:20:00.581Z,1.20
2023-04-26T20:22:28.848Z,1.30
2023-04-26T20:24:57.062Z,1.90
2023-04-26T20:27:25.316Z,1.10
2023-04-26T20:29:53.576Z,0.80
2023-04-26T20:32:21.815Z,1.10
2023-04-26T20:34:51.576Z,1.30
2023-04-26T20:37:19.830Z,1.30
2023-04-26T20:39:48.072Z,1.30
2023-04-26T20:42:17.681Z,1.10
2023-04-26T20:44:45.852Z,1.00
2023-04-26T20:47:14.060Z,1.20
2023-04-26T20:49:42.686Z,1.40
2023-04-26T20:52:11.712Z,1.20
2023-04-26T20:54:39.944Z,1.30
2023-04-26T20:57:08.146Z,1.10
2023-04-26T20:59:36.339Z,1.40
2023-04-26T21:02:05.145Z,1.40
2023-04-26T21:04:35.504Z,1.50
2023-04-26T21:07:03.872Z,1.00
2023-04-26T21:09:32.167Z,1.10
2023-04-26T21:12:01.937Z,1.00
2023-04-26T21:14:30.357Z,0.90
2023-04-26T21:16:58.703Z,1.30
2023-04-26T21:19:27.313Z,1.50
2023-04-26T21:21:55.514Z,0.70
2023-04-26T21:24:23.705Z,1.00
2023-04-26T21:26:51.951Z,0.90
2023-04-26T21:29:20.425Z,0.80
2023-04-26T21:31:48.754Z,1.00
2023-04-26T21:34:17.077Z,1.00
2023-04-26T21:36:45.411Z,1.20
2023-04-26T21:39:14.622Z,0.90
2023-04-26T21:41:42.785Z,1.00
2023-04-26T21:44:11.369Z,1.00
2023-04-26T21:46:39.584Z,0.70
2023-04-26T21:49:08.226Z,0.70
2023-04-26T21:51:36.638Z,0.80
2023-04-26T21:54:04.968Z,1.10
2023-04-26T21:56:33.154Z,0.60
2023-04-26T21:59:02.688Z,1.00
2023-04-26T22:01:31.303Z,0.60
2023-04-26T22:04:00.433Z,0.60
2023-04-26T22:06:29.189Z,0.40
2023-04-26T22:08:57.736Z,0.70
2023-04-26T22:11:26.094Z,0.50
2023-04-26T22:13:54.269Z,0.70
2023-04-26T22:16:22.494Z,0.50
2023-04-26T22:18:50.812Z,0.70
2023-04-26T22:21:18.968Z,0.80
2023-04-26T22:23:47.176Z,0.70
2023-04-26T22:26:15.740Z,0.60
2023-04-26T22:28:44.049Z,0.60
2023-04-26T22:31:12.188Z,0.70
2023-04-26T22:33:40.554Z,0.60
2023-04-26T22:36:11.504Z,0.50
2023-04-26T22:38:39.979Z,0.70
2023-04-26T22:41:08.290Z,0.60
2023-04-26T22:43:36.547Z,0.60
2023-04-26T22:46:04.790Z,0.90
2023-04-26T22:48:33.026Z,0.80
2023-04-26T22:51:01.538Z,0.70
2023-04-26T22:53:30.464Z,0.70
2023-04-26T22:55:58.647Z,0.80
2023-04-26T22:58:26.858Z,0.80
2023-04-26T23:00:55.155Z,0.40
2023-04-26T23:03:23.600Z,0.80
2023-04-26T23:05:51.928Z,0.60
2023-04-26T23:08:20.123Z,0.40
2023-04-26T23:10:49.001Z,0.60
2023-04-26T23:13:17.232Z,1.40
2023-04-26T23:15:45.848Z,0.60
2023-04-26T23:18:14.567Z,0.70
2023-04-26T23:20:42.813Z,0.80
2023-04-26T23:23:11.164Z,0.90
2023-04-26T23:25:42.261Z,0.70
2023-04-26T23:28:10.588Z,0.60
2023-04-26T23:30:38.917Z,0.60
2023-04-26T23:33:07.519Z,0.80
2023-04-26T23:35:41.251Z,1.30
2023-04-26T23:38:09.623Z,0.60
2023-04-26T23:40:37.829Z,0.60
2023-04-26T23:43:06.420Z,1.00
2023-04-26T23:45:34.658Z,0.80
2023-04-26T23:48:03.143Z,1.10
2023-04-26T23:50:31.698Z,1.00
2023-04-26T23:53:00.555Z,0.60
2023-04-26T23:55:29.137Z,0.70
2023-04-26T23:57:57.546Z,1.90
